sensor_id;sensor_type;location;lat;lon;timestamp;pressure;altitude;pressure_sealevel;temperature;humidity
21781;BME280;52576;53.614;9.894;2023-12-14T00:00:09;100688.53;;;3.68;90.19
21781;BME280;52576;53.614;9.894;2023-12-14T00:02:12;100706.63;;;3.69;90.19
21781;BME280;52576;53.614;9.894;2023-12-14T00:04:15;100701.44;;;3.69;90.07
21781;BME280;52576;53.614;9.894;2023-12-14T00:06:17;100710.00;;;3.71;90.24
21781;BME280;52576;53.614;9.894;2023-12-14T00:08:22;100704.81;;;3.71;89.99
21781;BME280;52576;53.614;9.894;2023-12-14T00:10:25;100715.97;;;3.73;89.99
21781;BME280;52576;53.614;9.894;2023-12-14T00:12:28;100715.06;;;3.74;90.03
21781;BME280;52576;53.614;9.894;2023-12-14T00:14:31;100709.88;;;3.74;90.04
21781;BME280;52576;53.614;9.894;2023-12-14T00:16:34;100708.94;;;3.77;90.13
21781;BME280;52576;53.614;9.894;2023-12-14T00:18:36;100717.56;;;3.78;90.14
21781;BME280;52576;53.614;9.894;2023-12-14T00:20:40;100716.66;;;3.79;90.21
21781;BME280;52576;53.614;9.894;2023-12-14T00:22:43;100715.75;;;3.80;90.23
21781;BME280;52576;53.614;9.894;2023-12-14T00:24:47;100712.19;;;3.82;90.26
21781;BME280;52576;53.614;9.894;2023-12-14T00:26:50;100723.41;;;3.83;90.18
21781;BME280;52576;53.614;9.894;2023-12-14T00:28:53;100727.69;;;3.84;90.28
21781;BME280;52576;53.614;9.894;2023-12-14T00:31:03;100738.00;;;3.85;90.36
21781;BME280;52576;53.614;9.894;2023-12-14T00:33:06;100742.28;;;3.86;90.29
21781;BME280;52576;53.614;9.894;2023-12-14T00:35:08;100747.41;;;3.88;90.13
21781;BME280;52576;53.614;9.894;2023-12-14T00:37:11;100747.41;;;3.88;90.42
21781;BME280;52576;53.614;9.894;2023-12-14T00:39:15;100751.59;;;3.90;90.37
21781;BME280;52576;53.614;9.894;2023-12-14T00:41:19;100757.63;;;3.91;90.48
21781;BME280;52576;53.614;9.894;2023-12-14T00:43:22;100755.03;;;3.91;90.41
21781;BME280;52576;53.614;9.894;2023-12-14T00:45:25;100755.81;;;3.93;90.49
21781;BME280;52576;53.614;9.894;2023-12-14T00:47:27;100767.88;;;3.94;90.60
21781;BME280;52576;53.614;9.894;2023-12-14T00:49:30;100765.28;;;3.94;90.57
21781;BME280;52576;53.614;9.894;2023-12-14T00:51:33;100764.38;;;3.95;90.61
21781;BME280;52576;53.614;9.894;2023-12-14T00:53:36;100770.41;;;3.95;90.48
21781;BME280;52576;53.614;9.894;2023-12-14T00:55:39;100770.34;;;3.97;90.34
21781;BME280;52576;53.614;9.894;2023-12-14T00:57:43;100779.81;;;3.98;90.29
21781;BME280;52576;53.614;9.894;2023-12-14T00:59:46;100784.97;;;3.99;90.17
21781;BME280;52576;53.614;9.894;2023-12-14T01:01:49;100785.81;;;4.00;90.04
21781;BME280;52576;53.614;9.894;2023-12-14T01:03:51;100778.91;;;3.99;89.99
21781;BME280;52576;53.614;9.894;2023-12-14T01:05:54;100780.63;;;4.00;90.04
21781;BME280;52576;53.614;9.894;2023-12-14T01:07:57;100788.38;;;4.00;89.92
21781;BME280;52576;53.614;9.894;2023-12-14T01:10:00;100796.97;;;4.02;90.03
21781;BME280;52576;53.614;9.894;2023-12-14T01:12:05;100798.72;;;4.01;90.02
21781;BME280;52576;53.614;9.894;2023-12-14T01:14:09;100801.25;;;4.03;89.96
21781;BME280;52576;53.614;9.894;2023-12-14T01:16:13;100798.66;;;4.03;90.10
21781;BME280;52576;53.614;9.894;2023-12-14T01:18:16;100796.97;;;4.02;89.90
21781;BME280;52576;53.614;9.894;2023-12-14T01:20:19;100795.28;;;4.01;89.91
21781;BME280;52576;53.614;9.894;2023-12-14T01:22:22;100802.16;;;4.02;89.92
21781;BME280;52576;53.614;9.894;2023-12-14T01:24:25;100806.50;;;4.01;89.87
21781;BME280;52576;53.614;9.894;2023-12-14T01:26:28;100806.50;;;4.01;89.93
21781;BME280;52576;53.614;9.894;2023-12-14T01:28:31;100805.63;;;4.01;89.97
21781;BME280;52576;53.614;9.894;2023-12-14T01:30:35;100814.31;;;4.00;90.04
21781;BME280;52576;53.614;9.894;2023-12-14T01:32:38;100814.31;;;4.00;90.25
21781;BME280;52576;53.614;9.894;2023-12-14T01:34:41;100825.53;;;4.00;90.38
21781;BME280;52576;53.614;9.894;2023-12-14T01:36:44;100831.56;;;4.01;90.25
21781;BME280;52576;53.614;9.894;2023-12-14T01:38:47;100835.06;;;4.00;90.25
21781;BME280;52576;53.614;9.894;2023-12-14T01:40:49;100834.16;;;4.01;90.42
21781;BME280;52576;53.614;9.894;2023-12-14T01:42:52;100841.09;;;4.00;90.50
21781;BME280;52576;53.614;9.894;2023-12-14T01:44:55;100831.56;;;4.01;90.45
21781;BME280;52576;53.614;9.894;2023-12-14T01:47:00;100836.75;;;4.01;90.66
21781;BME280;52576;53.614;9.894;2023-12-14T01:49:03;100840.25;;;4.00;90.56
21781;BME280;52576;53.614;9.894;2023-12-14T01:51:06;100837.78;;;3.97;90.66
21781;BME280;52576;53.614;9.894;2023-12-14T01:53:09;100840.38;;;3.97;90.59
21781;BME280;52576;53.614;9.894;2023-12-14T01:55:13;100838.69;;;3.96;90.56
21781;BME280;52576;53.614;9.894;2023-12-14T01:57:16;100843.03;;;3.95;90.71
21781;BME280;52576;53.614;9.894;2023-12-14T01:59:18;100842.19;;;3.95;90.80
21781;BME280;52576;53.614;9.894;2023-12-14T02:01:26;100840.50;;;3.94;90.87
21781;BME280;52576;53.614;9.894;2023-12-14T02:03:33;100845.69;;;3.94;90.88
21781;BME280;52576;53.614;9.894;2023-12-14T02:05:36;100834.47;;;3.93;90.92
21781;BME280;52576;53.614;9.894;2023-12-14T02:07:39;100834.47;;;3.93;90.91
21781;BME280;52576;53.614;9.894;2023-12-14T02:09:42;100843.97;;;3.93;90.95
21781;BME280;52576;53.614;9.894;2023-12-14T02:11:45;100843.13;;;3.92;90.83
21781;BME280;52576;53.614;9.894;2023-12-14T02:13:49;100847.47;;;3.92;90.94
21781;BME280;52576;53.614;9.894;2023-12-14T02:15:52;100847.47;;;3.92;90.91
21781;BME280;52576;53.614;9.894;2023-12-14T02:17:55;100849.16;;;3.93;91.00
21781;BME280;52576;53.614;9.894;2023-12-14T02:20:00;100849.16;;;3.93;91.00
21781;BME280;52576;53.614;9.894;2023-12-14T02:22:02;100850.84;;;3.94;91.01
21781;BME280;52576;53.614;9.894;2023-12-14T02:24:07;100851.72;;;3.94;90.99
21781;BME280;52576;53.614;9.894;2023-12-14T02:26:10;100857.69;;;3.96;91.05
21781;BME280;52576;53.614;9.894;2023-12-14T02:28:13;100857.63;;;3.98;91.07
21781;BME280;52576;53.614;9.894;2023-12-14T02:30:16;100862.81;;;3.98;91.02
21781;BME280;52576;53.614;9.894;2023-12-14T02:32:19;100862.81;;;3.98;91.03
21781;BME280;52576;53.614;9.894;2023-12-14T02:34:26;100859.38;;;3.97;91.12
21781;BME280;52576;53.614;9.894;2023-12-14T02:36:29;100873.19;;;3.98;91.08
21781;BME280;52576;53.614;9.894;2023-12-14T02:38:32;100869.69;;;3.99;91.21
21781;BME280;52576;53.614;9.894;2023-12-14T02:40:36;100869.69;;;3.99;91.36
21781;BME280;52576;53.614;9.894;2023-12-14T02:42:39;100872.28;;;3.99;91.18
21781;BME280;52576;53.614;9.894;2023-12-14T02:44:42;100867.16;;;3.97;91.41
21781;BME280;52576;53.614;9.894;2023-12-14T02:46:44;100872.41;;;3.96;91.40
21781;BME280;52576;53.614;9.894;2023-12-14T02:48:48;100879.28;;;3.97;91.60
21781;BME280;52576;53.614;9.894;2023-12-14T02:50:50;100877.59;;;3.96;91.48
21781;BME280;52576;53.614;9.894;2023-12-14T02:52:53;100881.88;;;3.97;91.62
21781;BME280;52576;53.614;9.894;2023-12-14T02:54:56;100886.22;;;3.96;91.72
21781;BME280;52576;53.614;9.894;2023-12-14T02:57:00;100889.69;;;3.95;91.48
21781;BME280;52576;53.614;9.894;2023-12-14T02:59:03;100901.72;;;3.98;91.59
21781;BME280;52576;53.614;9.894;2023-12-14T03:01:06;100899.13;;;3.98;91.61
21781;BME280;52576;53.614;9.894;2023-12-14T03:03:10;100901.72;;;3.98;91.50
21781;BME280;52576;53.614;9.894;2023-12-14T03:05:13;100908.66;;;3.97;91.27
21781;BME280;52576;53.614;9.894;2023-12-14T03:07:16;100914.69;;;3.98;91.19
21781;BME280;52576;53.614;9.894;2023-12-14T03:09:18;100920.72;;;3.98;91.17
21781;BME280;52576;53.614;9.894;2023-12-14T03:11:21;100931.09;;;3.98;91.25
21781;BME280;52576;53.614;9.894;2023-12-14T03:13:26;100926.75;;;3.99;91.11
21781;BME280;52576;53.614;9.894;2023-12-14T03:15:30;100931.94;;;3.99;91.27
21781;BME280;52576;53.614;9.894;2023-12-14T03:17:33;100926.75;;;3.99;91.25
21781;BME280;52576;53.614;9.894;2023-12-14T03:19:35;100923.25;;;4.00;91.03
21781;BME280;52576;53.614;9.894;2023-12-14T03:21:38;100928.44;;;4.00;90.89
21781;BME280;52576;53.614;9.894;2023-12-14T03:23:40;100931.03;;;4.00;90.79
21781;BME280;52576;53.614;9.894;2023-12-14T03:25:44;100929.34;;;3.99;90.76
21781;BME280;52576;53.614;9.894;2023-12-14T03:27:47;100931.09;;;3.98;90.83
21781;BME280;52576;53.614;9.894;2023-12-14T03:29:51;100936.28;;;3.98;90.67
21781;BME280;52576;53.614;9.894;2023-12-14T03:31:54;100929.38;;;3.97;90.72
21781;BME280;52576;53.614;9.894;2023-12-14T03:33:58;100932.88;;;3.96;90.53
21781;BME280;52576;53.614;9.894;2023-12-14T03:36:01;100937.22;;;3.96;90.62
21781;BME280;52576;53.614;9.894;2023-12-14T03:38:04;100939.03;;;3.94;90.56
21781;BME280;52576;53.614;9.894;2023-12-14T03:40:08;100944.22;;;3.94;90.72
21781;BME280;52576;53.614;9.894;2023-12-14T03:42:11;100942.53;;;3.93;90.67
21781;BME280;52576;53.614;9.894;2023-12-14T03:44:14;100942.47;;;3.94;90.68
21781;BME280;52576;53.614;9.894;2023-12-14T03:46:18;100948.56;;;3.93;90.42
21781;BME280;52576;53.614;9.894;2023-12-14T03:48:22;100941.69;;;3.92;90.42
21781;BME280;52576;53.614;9.894;2023-12-14T03:50:25;100947.72;;;3.93;90.38
21781;BME280;52576;53.614;9.894;2023-12-14T03:52:28;100952.91;;;3.93;90.56
21781;BME280;52576;53.614;9.894;2023-12-14T03:54:34;100951.19;;;3.92;90.50
21781;BME280;52576;53.614;9.894;2023-12-14T03:56:37;100952.91;;;3.93;90.54
21781;BME280;52576;53.614;9.894;2023-12-14T03:58:40;100947.72;;;3.93;90.59
21781;BME280;52576;53.614;9.894;2023-12-14T04:00:44;100952.94;;;3.91;90.64
21781;BME280;52576;53.614;9.894;2023-12-14T04:02:48;100963.25;;;3.93;90.60
21781;BME280;52576;53.614;9.894;2023-12-14T04:04:51;100959.88;;;3.91;90.69
21781;BME280;52576;53.614;9.894;2023-12-14T04:06:53;100961.56;;;3.92;90.67
21781;BME280;52576;53.614;9.894;2023-12-14T04:08:56;100962.47;;;3.91;90.67
21781;BME280;52576;53.614;9.894;2023-12-14T04:10:59;100964.22;;;3.90;90.62
21781;BME280;52576;53.614;9.894;2023-12-14T04:13:03;100970.25;;;3.91;90.55
21781;BME280;52576;53.614;9.894;2023-12-14T04:15:07;100982.31;;;3.92;90.70
21781;BME280;52576;53.614;9.894;2023-12-14T04:17:10;100976.28;;;3.91;90.72
21781;BME280;52576;53.614;9.894;2023-12-14T04:19:16;100983.22;;;3.91;90.50
21781;BME280;52576;53.614;9.894;2023-12-14T04:21:18;100980.63;;;3.91;90.46
21781;BME280;52576;53.614;9.894;2023-12-14T04:23:21;100984.16;;;3.90;90.32
21781;BME280;52576;53.614;9.894;2023-12-14T04:25:24;100982.47;;;3.89;90.30
21781;BME280;52576;53.614;9.894;2023-12-14T04:27:27;100985.94;;;3.88;90.31
21781;BME280;52576;53.614;9.894;2023-12-14T04:29:31;100985.94;;;3.88;90.39
21781;BME280;52576;53.614;9.894;2023-12-14T04:31:34;100991.13;;;3.88;90.30
21781;BME280;52576;53.614;9.894;2023-12-14T04:33:37;100994.63;;;3.87;90.54
21781;BME280;52576;53.614;9.894;2023-12-14T04:35:42;100998.97;;;3.86;90.37
21781;BME280;52576;53.614;9.894;2023-12-14T04:37:45;100998.97;;;3.86;90.38
21781;BME280;52576;53.614;9.894;2023-12-14T04:39:48;101007.59;;;3.87;90.37
21781;BME280;52576;53.614;9.894;2023-12-14T04:41:52;101017.06;;;3.88;90.52
21781;BME280;52576;53.614;9.894;2023-12-14T04:43:56;101016.22;;;3.87;90.65
21781;BME280;52576;53.614;9.894;2023-12-14T04:45:59;101017.06;;;3.88;90.77
21781;BME280;52576;53.614;9.894;2023-12-14T04:48:02;101023.94;;;3.89;90.82
21781;BME280;52576;53.614;9.894;2023-12-14T04:50:06;101018.75;;;3.89;90.89
21781;BME280;52576;53.614;9.894;2023-12-14T04:52:11;101028.28;;;3.88;90.76
21781;BME280;52576;53.614;9.894;2023-12-14T04:54:14;101027.44;;;3.88;90.61
21781;BME280;52576;53.614;9.894;2023-12-14T04:56:17;101036.13;;;3.87;90.75
21781;BME280;52576;53.614;9.894;2023-12-14T04:58:20;101031.81;;;3.86;91.09
21781;BME280;52576;53.614;9.894;2023-12-14T05:00:23;101031.88;;;3.84;90.92
21781;BME280;52576;53.614;9.894;2023-12-14T05:02:26;101039.66;;;3.84;90.99
21781;BME280;52576;53.614;9.894;2023-12-14T05:04:30;101045.75;;;3.83;91.18
21781;BME280;52576;53.614;9.894;2023-12-14T05:06:33;101041.50;;;3.81;91.22
21781;BME280;52576;53.614;9.894;2023-12-14T05:08:38;101048.44;;;3.80;91.33
21781;BME280;52576;53.614;9.894;2023-12-14T05:10:40;101050.19;;;3.80;91.29
21781;BME280;52576;53.614;9.894;2023-12-14T05:12:43;101051.97;;;3.78;91.33
21781;BME280;52576;53.614;9.894;2023-12-14T05:14:46;101045.09;;;3.77;91.44
21781;BME280;52576;53.614;9.894;2023-12-14T05:16:49;101052.09;;;3.74;91.46
21781;BME280;52576;53.614;9.894;2023-12-14T05:18:53;101059.84;;;3.74;91.60
21781;BME280;52576;53.614;9.894;2023-12-14T05:20:55;101067.63;;;3.74;91.73
21781;BME280;52576;53.614;9.894;2023-12-14T05:22:58;101071.03;;;3.77;91.92
21781;BME280;52576;53.614;9.894;2023-12-14T05:25:03;101072.72;;;3.78;91.97
21781;BME280;52576;53.614;9.894;2023-12-14T05:27:06;101078.69;;;3.80;92.06
21781;BME280;52576;53.614;9.894;2023-12-14T05:29:09;101080.44;;;3.79;92.03
21781;BME280;52576;53.614;9.894;2023-12-14T05:31:13;101084.78;;;3.79;92.07
21781;BME280;52576;53.614;9.894;2023-12-14T05:33:16;101078.84;;;3.75;91.96
21781;BME280;52576;53.614;9.894;2023-12-14T05:35:19;101090.06;;;3.75;92.21
21781;BME280;52576;53.614;9.894;2023-12-14T05:37:22;101088.38;;;3.74;92.17
21781;BME280;52576;53.614;9.894;2023-12-14T05:39:25;101092.72;;;3.74;92.29
21781;BME280;52576;53.614;9.894;2023-12-14T05:41:29;101102.22;;;3.73;92.41
21781;BME280;52576;53.614;9.894;2023-12-14T05:43:32;101102.22;;;3.73;92.50
21781;BME280;52576;53.614;9.894;2023-12-14T05:45:35;101105.78;;;3.71;92.52
21781;BME280;52576;53.614;9.894;2023-12-14T05:47:38;101104.97;;;3.69;92.55
21781;BME280;52576;53.614;9.894;2023-12-14T05:49:44;101110.19;;;3.67;92.73
21781;BME280;52576;53.614;9.894;2023-12-14T05:51:47;101115.44;;;3.66;92.78
21781;BME280;52576;53.614;9.894;2023-12-14T05:53:50;101111.22;;;3.63;92.81
21781;BME280;52576;53.614;9.894;2023-12-14T05:55:53;101121.59;;;3.63;93.07
21781;BME280;52576;53.614;9.894;2023-12-14T05:57:58;101128.44;;;3.64;93.05
21781;BME280;52576;53.614;9.894;2023-12-14T06:00:01;101132.72;;;3.65;93.16
21781;BME280;52576;53.614;9.894;2023-12-14T06:02:06;101135.31;;;3.65;93.20
21781;BME280;52576;53.614;9.894;2023-12-14T06:04:08;101129.25;;;3.66;93.26
21781;BME280;52576;53.614;9.894;2023-12-14T06:06:12;101131.84;;;3.66;93.41
21781;BME280;52576;53.614;9.894;2023-12-14T06:08:16;101132.72;;;3.65;93.47
21781;BME280;52576;53.614;9.894;2023-12-14T06:10:19;101135.31;;;3.65;93.24
21781;BME280;52576;53.614;9.894;2023-12-14T06:12:23;101137.03;;;3.66;93.39
21781;BME280;52576;53.614;9.894;2023-12-14T06:14:27;101135.31;;;3.65;93.48
21781;BME280;52576;53.614;9.894;2023-12-14T06:16:31;101137.91;;;3.65;93.57
21781;BME280;52576;53.614;9.894;2023-12-14T06:18:34;101138.81;;;3.64;93.43
21781;BME280;52576;53.614;9.894;2023-12-14T06:20:37;101147.53;;;3.63;93.49
21781;BME280;52576;53.614;9.894;2023-12-14T06:22:40;101148.41;;;3.62;93.58
21781;BME280;52576;53.614;9.894;2023-12-14T06:24:43;101157.09;;;3.61;93.46
21781;BME280;52576;53.614;9.894;2023-12-14T06:26:47;101163.16;;;3.60;93.55
21781;BME280;52576;53.614;9.894;2023-12-14T06:28:49;101167.50;;;3.60;93.66
21781;BME280;52576;53.614;9.894;2023-12-14T06:30:53;101176.16;;;3.59;93.66
21781;BME280;52576;53.614;9.894;2023-12-14T06:32:57;101175.28;;;3.60;93.89
21781;BME280;52576;53.614;9.894;2023-12-14T06:35:00;101177.03;;;3.59;93.81
21781;BME280;52576;53.614;9.894;2023-12-14T06:37:03;101178.72;;;3.60;93.98
21781;BME280;52576;53.614;9.894;2023-12-14T06:39:07;101185.59;;;3.61;93.86
21781;BME280;52576;53.614;9.894;2023-12-14T06:41:18;101190.78;;;3.61;94.10
21781;BME280;52576;53.614;9.894;2023-12-14T06:43:20;101197.66;;;3.62;94.01
21781;BME280;52576;53.614;9.894;2023-12-14T06:45:23;101197.66;;;3.62;93.88
21781;BME280;52576;53.614;9.894;2023-12-14T06:47:27;101193.31;;;3.63;94.03
21781;BME280;52576;53.614;9.894;2023-12-14T06:49:30;101189.81;;;3.64;94.16
21781;BME280;52576;53.614;9.894;2023-12-14T06:51:34;101194.09;;;3.65;94.27
21781;BME280;52576;53.614;9.894;2023-12-14T06:53:39;101201.81;;;3.66;94.18
21781;BME280;52576;53.614;9.894;2023-12-14T06:55:42;101206.13;;;3.67;94.14
21781;BME280;52576;53.614;9.894;2023-12-14T06:57:45;101206.13;;;3.67;94.23
21781;BME280;52576;53.614;9.894;2023-12-14T06:59:48;101208.66;;;3.69;94.17
21781;BME280;52576;53.614;9.894;2023-12-14T07:01:51;101204.31;;;3.69;94.25
21781;BME280;52576;53.614;9.894;2023-12-14T07:03:56;101206.91;;;3.69;94.27
21781;BME280;52576;53.614;9.894;2023-12-14T07:05:59;101216.50;;;3.67;94.12
21781;BME280;52576;53.614;9.894;2023-12-14T07:08:01;101224.25;;;3.67;94.16
21781;BME280;52576;53.614;9.894;2023-12-14T07:10:05;101219.94;;;3.68;94.43
21781;BME280;52576;53.614;9.894;2023-12-14T07:12:07;101226.00;;;3.67;94.22
21781;BME280;52576;53.614;9.894;2023-12-14T07:14:13;101231.19;;;3.67;94.32
21781;BME280;52576;53.614;9.894;2023-12-14T07:16:17;101235.53;;;3.66;94.20
21781;BME280;52576;53.614;9.894;2023-12-14T07:18:20;101240.72;;;3.66;94.30
21781;BME280;52576;53.614;9.894;2023-12-14T07:20:25;101245.03;;;3.66;94.45
21781;BME280;52576;53.614;9.894;2023-12-14T07:22:28;101252.81;;;3.66;94.43
21781;BME280;52576;53.614;9.894;2023-12-14T07:24:31;101253.72;;;3.65;94.32
21781;BME280;52576;53.614;9.894;2023-12-14T07:26:49;101255.53;;;3.63;94.42
21781;BME280;52576;53.614;9.894;2023-12-14T07:28:53;101265.06;;;3.62;94.33
21781;BME280;52576;53.614;9.894;2023-12-14T07:30:56;101265.16;;;3.59;94.31
21781;BME280;52576;53.614;9.894;2023-12-14T07:32:59;101268.63;;;3.58;94.51
21781;BME280;52576;53.614;9.894;2023-12-14T07:35:03;101271.22;;;3.58;94.51
21781;BME280;52576;53.614;9.894;2023-12-14T07:37:08;101280.69;;;3.59;94.53
21781;BME280;52576;53.614;9.894;2023-12-14T07:39:11;101281.63;;;3.57;94.52
21781;BME280;52576;53.614;9.894;2023-12-14T07:41:14;101285.94;;;3.58;94.50
21781;BME280;52576;53.614;9.894;2023-12-14T07:43:17;101287.66;;;3.57;94.53
21781;BME280;52576;53.614;9.894;2023-12-14T07:45:20;101293.75;;;3.56;94.52
21781;BME280;52576;53.614;9.894;2023-12-14T07:47:23;101291.16;;;3.56;94.55
21781;BME280;52576;53.614;9.894;2023-12-14T07:49:26;101298.94;;;3.56;94.56
21781;BME280;52576;53.614;9.894;2023-12-14T07:51:29;101292.84;;;3.57;94.79
21781;BME280;52576;53.614;9.894;2023-12-14T07:53:34;101295.41;;;3.59;94.70
21781;BME280;52576;53.614;9.894;2023-12-14T07:55:37;101306.56;;;3.61;94.72
21781;BME280;52576;53.614;9.894;2023-12-14T07:57:42;101301.34;;;3.62;94.87
21781;BME280;52576;53.614;9.894;2023-12-14T07:59:45;101307.31;;;3.64;94.78
21781;BME280;52576;53.614;9.894;2023-12-14T08:01:48;101310.75;;;3.65;94.75
21781;BME280;52576;53.614;9.894;2023-12-14T08:03:51;101311.59;;;3.65;94.49
21781;BME280;52576;53.614;9.894;2023-12-14T08:05:55;101310.69;;;3.66;94.52
21781;BME280;52576;53.614;9.894;2023-12-14T08:07:58;101315.00;;;3.67;94.52
21781;BME280;52576;53.614;9.894;2023-12-14T08:10:03;101321.03;;;3.68;94.36
21781;BME280;52576;53.614;9.894;2023-12-14T08:12:06;101321.06;;;3.66;94.29
21781;BME280;52576;53.614;9.894;2023-12-14T08:14:10;101328.00;;;3.66;94.42
21781;BME280;52576;53.614;9.894;2023-12-14T08:16:12;101340.91;;;3.67;94.45
21781;BME280;52576;53.614;9.894;2023-12-14T08:18:15;101342.63;;;3.68;94.51
21781;BME280;52576;53.614;9.894;2023-12-14T08:20:19;101338.25;;;3.70;94.58
21781;BME280;52576;53.614;9.894;2023-12-14T08:22:22;101343.34;;;3.73;94.43
21781;BME280;52576;53.614;9.894;2023-12-14T08:24:24;101339.84;;;3.74;94.32
21781;BME280;52576;53.614;9.894;2023-12-14T08:26:29;101345.03;;;3.74;94.09
21781;BME280;52576;53.614;9.894;2023-12-14T08:28:32;101346.78;;;3.74;94.01
21781;BME280;52576;53.614;9.894;2023-12-14T08:30:35;101357.09;;;3.75;94.18
21781;BME280;52576;53.614;9.894;2023-12-14T08:32:40;101358.84;;;3.75;94.08
21781;BME280;52576;53.614;9.894;2023-12-14T08:34:45;101360.50;;;3.78;94.19
21781;BME280;52576;53.614;9.894;2023-12-14T08:36:47;101365.69;;;3.78;94.04
21781;BME280;52576;53.614;9.894;2023-12-14T08:38:50;101371.78;;;3.77;93.88
21781;BME280;52576;53.614;9.894;2023-12-14T08:40:53;101373.47;;;3.78;93.93
21781;BME280;52576;53.614;9.894;2023-12-14T08:42:57;101383.84;;;3.78;93.92
21781;BME280;52576;53.614;9.894;2023-12-14T08:45:00;101390.72;;;3.79;93.89
21781;BME280;52576;53.614;9.894;2023-12-14T08:47:04;101383.75;;;3.81;93.95
21781;BME280;52576;53.614;9.894;2023-12-14T08:49:06;101395.78;;;3.83;93.75
21781;BME280;52576;53.614;9.894;2023-12-14T08:51:10;101388.84;;;3.84;93.69
21781;BME280;52576;53.614;9.894;2023-12-14T08:53:13;101402.63;;;3.86;93.65
21781;BME280;52576;53.614;9.894;2023-12-14T08:55:16;101406.03;;;3.88;93.67
21781;BME280;52576;53.614;9.894;2023-12-14T08:57:19;101407.72;;;3.89;93.61
21781;BME280;52576;53.614;9.894;2023-12-14T08:59:23;101405.06;;;3.90;93.57
21781;BME280;52576;53.614;9.894;2023-12-14T09:01:26;101409.44;;;3.90;93.36
21781;BME280;52576;53.614;9.894;2023-12-14T09:03:28;101412.81;;;3.92;93.22
21781;BME280;52576;53.614;9.894;2023-12-14T09:05:31;101417.91;;;3.95;93.42
21781;BME280;52576;53.614;9.894;2023-12-14T09:07:34;101416.13;;;3.97;93.28
21781;BME280;52576;53.614;9.894;2023-12-14T09:09:36;101411.78;;;3.97;93.15
21781;BME280;52576;53.614;9.894;2023-12-14T09:11:39;101417.81;;;3.98;92.92
21781;BME280;52576;53.614;9.894;2023-12-14T09:13:42;101412.53;;;4.01;92.95
21781;BME280;52576;53.614;9.894;2023-12-14T09:15:46;101410.75;;;4.03;92.78
21781;BME280;52576;53.614;9.894;2023-12-14T09:17:49;101412.44;;;4.04;92.76
21781;BME280;52576;53.614;9.894;2023-12-14T09:19:52;101417.66;;;4.04;92.46
21781;BME280;52576;53.614;9.894;2023-12-14T09:21:55;101421.13;;;4.03;92.27
21781;BME280;52576;53.614;9.894;2023-12-14T09:23:59;101425.50;;;4.01;92.17
21781;BME280;52576;53.614;9.894;2023-12-14T09:26:03;101433.28;;;4.01;92.20
21781;BME280;52576;53.614;9.894;2023-12-14T09:28:06;101438.47;;;4.01;92.22
21781;BME280;52576;53.614;9.894;2023-12-14T09:30:10;101440.25;;;3.99;91.91
21781;BME280;52576;53.614;9.894;2023-12-14T09:32:15;101440.22;;;4.00;91.99
21781;BME280;52576;53.614;9.894;2023-12-14T09:34:19;101435.00;;;4.02;92.06
21781;BME280;52576;53.614;9.894;2023-12-14T09:36:22;101438.41;;;4.04;92.00
21781;BME280;52576;53.614;9.894;2023-12-14T09:38:25;101440.94;;;4.05;91.81
21781;BME280;52576;53.614;9.894;2023-12-14T09:40:29;101445.28;;;4.05;91.63
21781;BME280;52576;53.614;9.894;2023-12-14T09:42:36;101441.78;;;4.06;91.62
21781;BME280;52576;53.614;9.894;2023-12-14T09:44:40;101450.38;;;4.08;91.56
21781;BME280;52576;53.614;9.894;2023-12-14T09:46:44;101441.72;;;4.09;91.60
21781;BME280;52576;53.614;9.894;2023-12-14T09:48:54;101444.31;;;4.09;91.47
21781;BME280;52576;53.614;9.894;2023-12-14T09:50:57;101446.00;;;4.10;91.47
21781;BME280;52576;53.614;9.894;2023-12-14T09:53:00;101446.84;;;4.11;91.46
21781;BME280;52576;53.614;9.894;2023-12-14T09:55:03;101446.81;;;4.12;91.30
21781;BME280;52576;53.614;9.894;2023-12-14T09:57:06;101452.00;;;4.12;91.26
21781;BME280;52576;53.614;9.894;2023-12-14T09:59:10;101458.84;;;4.15;91.16
21781;BME280;52576;53.614;9.894;2023-12-14T10:01:22;101451.91;;;4.15;91.21
21781;BME280;52576;53.614;9.894;2023-12-14T10:03:27;101454.50;;;4.15;90.97
21781;BME280;52576;53.614;9.894;2023-12-14T10:05:32;101461.38;;;4.16;91.11
21781;BME280;52576;53.614;9.894;2023-12-14T10:07:41;101468.25;;;4.17;90.94
21781;BME280;52576;53.614;9.894;2023-12-14T10:09:45;101470.84;;;4.17;90.86
21781;BME280;52576;53.614;9.894;2023-12-14T10:11:48;101474.34;;;4.16;90.61
21781;BME280;52576;53.614;9.894;2023-12-14T10:14:17;101484.72;;;4.16;90.75
21781;BME280;52576;53.614;9.894;2023-12-14T10:16:28;101477.75;;;4.18;90.88
21781;BME280;52576;53.614;9.894;2023-12-14T10:18:32;101482.84;;;4.21;90.73
21781;BME280;52576;53.614;9.894;2023-12-14T10:20:38;101481.91;;;4.24;90.70
21781;BME280;52576;53.614;9.894;2023-12-14T10:22:44;101481.88;;;4.25;90.53
21781;BME280;52576;53.614;9.894;2023-12-14T10:24:47;101482.66;;;4.27;90.47
21781;BME280;52576;53.614;9.894;2023-12-14T10:26:50;101488.63;;;4.31;90.57
21781;BME280;52576;53.614;9.894;2023-12-14T10:28:54;101487.69;;;4.33;90.47
21781;BME280;52576;53.614;9.894;2023-12-14T10:30:57;101497.97;;;4.36;90.33
21781;BME280;52576;53.614;9.894;2023-12-14T10:33:00;101495.34;;;4.38;90.36
21781;BME280;52576;53.614;9.894;2023-12-14T10:35:04;101491.84;;;4.39;90.05
21781;BME280;52576;53.614;9.894;2023-12-14T10:37:10;101507.44;;;4.39;90.00
21781;BME280;52576;53.614;9.894;2023-12-14T10:39:14;101508.28;;;4.39;89.92
21781;BME280;52576;53.614;9.894;2023-12-14T10:41:21;101515.09;;;4.42;89.96
21781;BME280;52576;53.614;9.894;2023-12-14T10:43:26;101518.53;;;4.42;89.84
21781;BME280;52576;53.614;9.894;2023-12-14T10:45:49;101516.78;;;4.43;89.64
21781;BME280;52576;53.614;9.894;2023-12-14T10:47:53;101520.19;;;4.45;89.62
21781;BME280;52576;53.614;9.894;2023-12-14T10:49:59;101523.66;;;4.46;89.62
21781;BME280;52576;53.614;9.894;2023-12-14T10:52:04;101527.06;;;4.48;89.61
21781;BME280;52576;53.614;9.894;2023-12-14T10:54:09;101527.91;;;4.48;89.59